Time;durP1;ratioP1;P1;durP2;ratioP2;P2;SDS_P1;SDS_P2;PMS_P1;PMS_P2;Temp;Humidity;BMP_temperature;BMP_pressure;BME280_temperature;BME280_humidity;BME280_pressure;Samples;Min_cycle;Max_cycle;Signal;HPM_P1;HPM_P2
2022/06/08 00:00:44;;;;;;;2.77;2.57;;;;;;;;;;5033795;28;20211;-78
2022/06/08 00:03:13;;;;;;;2.60;2.40;;;;;;;;;;5033870;28;20200;-78
2022/06/08 00:05:41;;;;;;;4.83;2.50;;;;;;;;;;5033518;28;20197;-78
2022/06/08 00:08:08;;;;;;;3.00;2.73;;;;;;;;;;5033660;28;20212;-78
2022/06/08 00:10:36;;;;;;;4.00;2.80;;;;;;;;;;5033546;28;20215;-78
2022/06/08 00:13:03;;;;;;;5.50;3.10;;;;;;;;;;5033089;28;20244;-78
2022/06/08 00:15:30;;;;;;;2.90;2.70;;;;;;;;;;5033543;28;20292;-78
2022/06/08 00:17:57;;;;;;;4.47;2.90;;;;;;;;;;5033707;28;20271;-78
2022/06/08 00:20:24;;;;;;;3.40;2.87;;;;;;;;;;5033357;28;20288;-78
2022/06/08 00:22:54;;;;;;;3.60;2.80;;;;;;;;;;5032965;28;20192;-78
2022/06/08 00:25:22;;;;;;;3.37;2.50;;;;;;;;;;5033582;28;20624;-78
2022/06/08 00:27:49;;;;;;;3.23;2.73;;;;;;;;;;5033288;28;20747;-78
2022/06/08 00:30:16;;;;;;;5.90;2.83;;;;;;;;;;5033022;28;20205;-78
2022/06/08 00:32:43;;;;;;;4.73;2.70;;;;;;;;;;5033063;28;20271;-78
2022/06/08 00:35:11;;;;;;;2.90;2.70;;;;;;;;;;5032887;28;20219;-78
2022/06/08 00:37:38;;;;;;;3.23;2.70;;;;;;;;;;5033180;28;20201;-78
2022/06/08 00:40:09;;;;;;;2.63;2.43;;;;;;;;;;5032801;28;20255;-78
2022/06/08 00:42:36;;;;;;;3.10;2.80;;;;;;;;;;5033121;28;20196;-78
2022/06/08 00:45:06;;;;;;;4.57;2.80;;;;;;;;;;5033125;28;20284;-78
2022/06/08 00:47:36;;;;;;;5.97;3.47;;;;;;;;;;5033176;28;20208;-78
2022/06/08 00:50:06;;;;;;;3.17;2.57;;;;;;;;;;5032750;28;20205;-78
2022/06/08 00:52:34;;;;;;;2.80;2.60;;;;;;;;;;5032851;28;20646;-78
2022/06/08 00:55:04;;;;;;;3.97;3.37;;;;;;;;;;5032747;28;20324;-78
2022/06/08 00:57:37;;;;;;;2.90;2.70;;;;;;;;;;5032686;28;20250;-78
2022/06/08 01:00:08;;;;;;;4.60;2.40;;;;;;;;;;5032531;28;20218;-78
2022/06/08 01:02:35;;;;;;;3.03;2.67;;;;;;;;;;5032596;28;20619;-78
2022/06/08 01:05:25;;;;;;;2.87;2.67;;;;;;;;;;5032690;28;20280;-78
2022/06/08 01:07:53;;;;;;;5.77;3.07;;;;;;;;;;5032637;28;20644;-78
2022/06/08 01:10:22;;;;;;;4.80;3.00;;;;;;;;;;5032554;28;20297;-78
2022/06/08 01:12:51;;;;;;;3.57;3.20;;;;;;;;;;5032263;28;20238;-78
2022/06/08 01:15:21;;;;;;;2.50;2.33;;;;;;;;;;5032123;28;20218;-78
2022/06/08 01:17:48;;;;;;;4.10;3.37;;;;;;;;;;5032343;28;20195;-78
2022/06/08 01:20:15;;;;;;;4.17;2.90;;;;;;;;;;5032122;28;20629;-78
2022/06/08 01:22:44;;;;;;;3.70;2.63;;;;;;;;;;5032373;28;20203;-78
2022/06/08 01:25:12;;;;;;;3.03;2.77;;;;;;;;;;5032075;28;20199;-78
2022/06/08 01:27:58;;;;;;;2.60;2.40;;;;;;;;;;5032301;28;20632;-78
2022/06/08 01:30:27;;;;;;;3.57;2.50;;;;;;;;;;5032126;28;20229;-78
2022/06/08 01:33:14;;;;;;;2.63;2.33;;;;;;;;;;5032311;28;20280;-78
2022/06/08 01:35:51;;;;;;;8.20;3.00;;;;;;;;;;5032124;28;20186;-78
2022/06/08 01:38:29;;;;;;;3.00;2.80;;;;;;;;;;5032149;28;20186;-78
2022/06/08 01:41:09;;;;;;;3.30;2.97;;;;;;;;;;5032365;28;20663;-78
2022/06/08 01:43:49;;;;;;;3.80;2.77;;;;;;;;;;5031735;28;20730;-78
2022/06/08 01:46:21;;;;;;;6.67;3.40;;;;;;;;;;5032326;28;20187;-78
2022/06/08 01:49:03;;;;;;;3.40;3.10;;;;;;;;;;5031466;28;20183;-78
2022/06/08 01:51:53;;;;;;;3.10;2.90;;;;;;;;;;5032066;28;20270;-78
2022/06/08 01:54:32;;;;;;;2.87;2.57;;;;;;;;;;5026832;28;20262;-78
2022/06/08 01:57:09;;;;;;;2.70;2.50;;;;;;;;;;5031846;28;20708;-78
2022/06/08 01:59:42;;;;;;;3.30;3.00;;;;;;;;;;5031326;28;20218;-78
2022/06/08 02:02:13;;;;;;;4.80;2.87;;;;;;;;;;5031807;28;20229;-78
2022/06/08 02:04:42;;;;;;;3.23;2.67;;;;;;;;;;5031704;28;20222;-78
2022/06/08 02:07:17;;;;;;;2.97;2.67;;;;;;;;;;5031997;28;20281;-78
2022/06/08 02:09:48;;;;;;;2.73;2.53;;;;;;;;;;5031499;28;20202;-78
2022/06/08 02:12:16;;;;;;;2.87;2.67;;;;;;;;;;5031559;28;20281;-79
2022/06/08 02:14:47;;;;;;;2.63;2.43;;;;;;;;;;5031281;28;20230;-78
2022/06/08 02:17:21;;;;;;;3.27;3.03;;;;;;;;;;5031757;28;20396;-78
2022/06/08 02:19:50;;;;;;;3.23;3.03;;;;;;;;;;5031708;28;20640;-78
2022/06/08 02:22:20;;;;;;;3.10;2.70;;;;;;;;;;5031339;28;20238;-78
2022/06/08 02:24:51;;;;;;;2.73;2.53;;;;;;;;;;5031681;28;20210;-78
2022/06/08 02:27:23;;;;;;;4.87;3.00;;;;;;;;;;5031522;28;20187;-78
2022/06/08 02:29:54;;;;;;;3.03;2.83;;;;;;;;;;5031418;28;20287;-78
2022/06/08 02:35:10;;;;;;;3.37;3.00;;;;;;;;;;5008578;28;20233;-79
2022/06/08 02:37:37;;;;;;;3.03;2.83;;;;;;;;;;5031600;28;20180;-78
2022/06/08 02:40:10;;;;;;;3.50;3.20;;;;;;;;;;5031603;28;20675;-79
2022/06/08 02:42:41;;;;;;;3.53;3.00;;;;;;;;;;5031455;28;20187;-79
2022/06/08 02:45:13;;;;;;;3.20;3.00;;;;;;;;;;5031310;28;20191;-79
2022/06/08 02:47:41;;;;;;;7.13;3.07;;;;;;;;;;5031397;28;20183;-78
2022/06/08 02:50:11;;;;;;;3.73;3.13;;;;;;;;;;5031550;28;20199;-79
2022/06/08 02:52:42;;;;;;;4.53;3.30;;;;;;;;;;5031392;28;20187;-78
2022/06/08 02:55:19;;;;;;;3.33;3.13;;;;;;;;;;5031450;28;20214;-79
2022/06/08 02:57:52;;;;;;;3.07;2.87;;;;;;;;;;5031390;28;20191;-78
2022/06/08 03:00:23;;;;;;;4.23;2.60;;;;;;;;;;5029756;28;20211;-82
2022/06/08 03:02:56;;;;;;;2.77;2.57;;;;;;;;;;5025025;28;20276;-81
2022/06/08 03:05:27;;;;;;;3.17;2.97;;;;;;;;;;5034208;28;20568;-82
2022/06/08 03:07:57;;;;;;;3.13;2.73;;;;;;;;;;5050519;28;20194;-81
2022/06/08 03:10:26;;;;;;;3.43;3.13;;;;;;;;;;5051452;28;20190;-82
2022/06/08 03:12:57;;;;;;;4.47;3.23;;;;;;;;;;5052440;28;20717;-82
2022/06/08 03:15:26;;;;;;;4.20;3.80;;;;;;;;;;5053988;28;20774;-81
2022/06/08 03:17:53;;;;;;;2.60;2.40;;;;;;;;;;5054178;28;20629;-81
2022/06/08 03:20:24;;;;;;;3.50;2.93;;;;;;;;;;5054183;28;20240;-81
2022/06/08 03:22:51;;;;;;;3.93;3.33;;;;;;;;;;5054412;28;20187;-81
2022/06/08 03:25:18;;;;;;;4.10;3.30;;;;;;;;;;5054135;28;20190;-82
2022/06/08 03:27:48;;;;;;;2.90;2.70;;;;;;;;;;5054116;28;20197;-82
2022/06/08 03:30:15;;;;;;;3.73;3.10;;;;;;;;;;5036640;28;20213;-82
2022/06/08 03:32:42;;;;;;;6.23;3.60;;;;;;;;;;5053794;28;20202;-82
2022/06/08 03:35:10;;;;;;;4.53;3.00;;;;;;;;;;5054110;28;20645;-82
2022/06/08 03:37:37;;;;;;;3.67;3.37;;;;;;;;;;5053692;28;20202;-81
2022/06/08 03:40:06;;;;;;;4.03;3.30;;;;;;;;;;5053800;28;20198;-81
2022/06/08 03:42:33;;;;;;;5.87;3.77;;;;;;;;;;5053731;28;20232;-81
2022/06/08 03:45:06;;;;;;;4.03;3.40;;;;;;;;;;5053895;28;20271;-81
2022/06/08 03:47:43;;;;;;;3.43;2.77;;;;;;;;;;5054858;28;20715;-82
2022/06/08 03:50:13;;;;;;;3.20;3.00;;;;;;;;;;5053951;28;20190;-81
2022/06/08 03:52:44;;;;;;;3.13;2.80;;;;;;;;;;5053640;28;20255;-82
2022/06/08 03:55:13;;;;;;;5.03;3.00;;;;;;;;;;5054017;28;20696;-82
2022/06/08 03:57:44;;;;;;;4.80;3.40;;;;;;;;;;5054131;28;20631;-82
2022/06/08 04:00:15;;;;;;;4.97;3.60;;;;;;;;;;5053815;28;20621;-82
2022/06/08 04:02:42;;;;;;;7.13;3.67;;;;;;;;;;5054053;28;20598;-81
2022/06/08 04:05:10;;;;;;;4.07;3.00;;;;;;;;;;5053700;28;20193;-82
2022/06/08 04:07:37;;;;;;;3.37;3.07;;;;;;;;;;5053592;28;20708;-82
2022/06/08 04:10:05;;;;;;;4.30;3.30;;;;;;;;;;5053508;28;20251;-82
2022/06/08 04:12:32;;;;;;;4.40;3.43;;;;;;;;;;5053060;28;20226;-82
2022/06/08 04:14:59;;;;;;;4.27;3.33;;;;;;;;;;5053289;28;20218;-82
2022/06/08 04:17:28;;;;;;;4.03;3.63;;;;;;;;;;5053389;28;20208;-81
2022/06/08 04:19:55;;;;;;;3.90;3.13;;;;;;;;;;5053281;28;20222;-82
2022/06/08 04:22:25;;;;;;;4.57;3.37;;;;;;;;;;5053362;28;20256;-82
2022/06/08 04:24:52;;;;;;;3.53;3.23;;;;;;;;;;5052918;28;20201;-82
2022/06/08 04:27:19;;;;;;;3.93;3.67;;;;;;;;;;5053521;28;20276;-82
2022/06/08 04:29:48;;;;;;;3.63;3.17;;;;;;;;;;5052656;28;20558;-83
2022/06/08 04:32:15;;;;;;;5.13;3.60;;;;;;;;;;5053317;28;20201;-82
2022/06/08 04:34:43;;;;;;;5.27;3.40;;;;;;;;;;5052849;28;20222;-82
2022/06/08 04:37:11;;;;;;;3.60;3.30;;;;;;;;;;5053115;28;20226;-83
2022/06/08 04:39:38;;;;;;;2.90;2.70;;;;;;;;;;5053204;28;20668;-83
2022/06/08 04:42:07;;;;;;;5.90;3.13;;;;;;;;;;5052274;28;20274;-82
2022/06/08 04:44:34;;;;;;;5.50;3.90;;;;;;;;;;5051945;28;20257;-83
2022/06/08 04:47:01;;;;;;;3.43;2.97;;;;;;;;;;5053264;28;20639;-83
2022/06/08 04:49:28;;;;;;;3.40;3.10;;;;;;;;;;5052565;28;20796;-83
2022/06/08 04:51:56;;;;;;;3.90;3.10;;;;;;;;;;5053020;28;20325;-82
2022/06/08 04:54:24;;;;;;;3.70;3.40;;;;;;;;;;5052519;28;20194;-82
2022/06/08 04:56:51;;;;;;;3.27;2.43;;;;;;;;;;5052547;28;20197;-83
2022/06/08 04:59:18;;;;;;;3.27;2.93;;;;;;;;;;5052463;28;20604;-82
2022/06/08 05:01:45;;;;;;;4.33;3.33;;;;;;;;;;5052686;28;20211;-83
2022/06/08 05:04:12;;;;;;;3.20;3.00;;;;;;;;;;5052790;28;20549;-82
2022/06/08 05:06:39;;;;;;;3.73;3.27;;;;;;;;;;5052550;28;20674;-82
2022/06/08 05:09:08;;;;;;;3.50;3.20;;;;;;;;;;5052418;28;20209;-83
2022/06/08 05:11:35;;;;;;;3.77;3.43;;;;;;;;;;5052330;28;20235;-83
2022/06/08 05:14:02;;;;;;;8.07;3.27;;;;;;;;;;5052093;28;20646;-82
2022/06/08 05:16:29;;;;;;;3.63;3.10;;;;;;;;;;5052319;28;20219;-83
2022/06/08 05:18:56;;;;;;;3.97;2.73;;;;;;;;;;5052197;28;20744;-83
2022/06/08 05:21:23;;;;;;;3.53;3.23;;;;;;;;;;5052397;28;20199;-83
2022/06/08 05:23:50;;;;;;;3.27;3.07;;;;;;;;;;5052169;28;20259;-83
2022/06/08 05:26:19;;;;;;;3.53;3.23;;;;;;;;;;5052266;28;20200;-82
2022/06/08 05:28:46;;;;;;;3.60;3.30;;;;;;;;;;5052279;28;20200;-83
2022/06/08 05:31:13;;;;;;;3.70;2.90;;;;;;;;;;5052211;28;20254;-83
2022/06/08 05:33:40;;;;;;;4.87;2.80;;;;;;;;;;5051718;28;20211;-83
2022/06/08 05:36:08;;;;;;;3.97;3.13;;;;;;;;;;5051735;28;20228;-83
2022/06/08 05:38:35;;;;;;;4.50;3.53;;;;;;;;;;5052211;28;20208;-83
2022/06/08 05:41:02;;;;;;;7.53;3.43;;;;;;;;;;5052042;28;20196;-83
2022/06/08 05:43:31;;;;;;;4.90;3.20;;;;;;;;;;5052055;28;20197;-83
2022/06/08 05:45:59;;;;;;;4.73;3.40;;;;;;;;;;5051754;28;20689;-83
2022/06/08 05:48:26;;;;;;;2.93;2.73;;;;;;;;;;5052046;28;20204;-83
2022/06/08 05:50:53;;;;;;;4.73;2.90;;;;;;;;;;5052247;28;20255;-83
2022/06/08 05:53:20;;;;;;;3.37;2.77;;;;;;;;;;5051685;28;20202;-83
2022/06/08 05:55:48;;;;;;;3.10;2.57;;;;;;;;;;5051821;28;20224;-83
2022/06/08 05:58:15;;;;;;;5.23;2.93;;;;;;;;;;5051639;28;20198;-83
2022/06/08 06:00:44;;;;;;;3.83;2.97;;;;;;;;;;5051824;28;20198;-83
2022/06/08 06:03:11;;;;;;;5.70;2.73;;;;;;;;;;5051345;28;20194;-82
2022/06/08 06:05:40;;;;;;;3.67;2.93;;;;;;;;;;5051634;28;20201;-83
2022/06/08 06:08:08;;;;;;;2.93;2.73;;;;;;;;;;5051666;28;20201;-82
2022/06/08 06:10:38;;;;;;;5.80;4.17;;;;;;;;;;5051651;28;20232;-83
2022/06/08 06:13:05;;;;;;;5.03;4.60;;;;;;;;;;5051383;28;20328;-82
2022/06/08 06:15:33;;;;;;;8.07;5.17;;;;;;;;;;5051246;28;20360;-83
2022/06/08 06:18:01;;;;;;;9.00;6.63;;;;;;;;;;5051884;28;20202;-83
2022/06/08 06:20:28;;;;;;;10.17;7.00;;;;;;;;;;5051840;28;20205;-83
2022/06/08 06:22:55;;;;;;;10.67;7.63;;;;;;;;;;5051589;28;20255;-83
2022/06/08 06:25:23;;;;;;;10.97;8.07;;;;;;;;;;5051501;28;20198;-83
2022/06/08 06:27:50;;;;;;;8.97;7.63;;;;;;;;;;5051827;28;20204;-82
2022/06/08 06:30:17;;;;;;;6.70;6.20;;;;;;;;;;5051399;28;20202;-83
2022/06/08 06:32:46;;;;;;;10.87;8.33;;;;;;;;;;5051781;28;20667;-82
2022/06/08 06:35:18;;;;;;;7.20;6.60;;;;;;;;;;5051475;28;20221;-83
2022/06/08 06:37:46;;;;;;;9.00;8.10;;;;;;;;;;5051563;28;20190;-82
2022/06/08 06:40:13;;;;;;;7.03;6.23;;;;;;;;;;5051565;28;20583;-83
2022/06/08 06:42:40;;;;;;;6.27;5.77;;;;;;;;;;5051720;28;20198;-83
2022/06/08 06:45:08;;;;;;;7.37;6.20;;;;;;;;;;5051007;28;20194;-83
2022/06/08 06:47:35;;;;;;;7.60;6.90;;;;;;;;;;5054421;28;20198;-82
2022/06/08 06:50:02;;;;;;;7.17;6.57;;;;;;;;;;5055105;28;20205;-83
2022/06/08 06:52:32;;;;;;;8.00;7.40;;;;;;;;;;5055421;28;20285;-83
2022/06/08 06:54:59;;;;;;;9.63;8.73;;;;;;;;;;5055126;28;20589;-83
2022/06/08 06:57:26;;;;;;;7.50;6.87;;;;;;;;;;5055093;28;20247;-83
2022/06/08 06:59:53;;;;;;;7.07;6.30;;;;;;;;;;5054811;28;20662;-83
2022/06/08 07:02:22;;;;;;;6.73;6.13;;;;;;;;;;5055292;28;20198;-83
2022/06/08 07:04:49;;;;;;;9.13;8.30;;;;;;;;;;5055022;28;20255;-83
2022/06/08 07:07:17;;;;;;;8.50;7.80;;;;;;;;;;5054965;28;20194;-83
2022/06/08 07:09:45;;;;;;;8.87;8.07;;;;;;;;;;5054687;28;20280;-83
2022/06/08 07:12:13;;;;;;;8.47;7.30;;;;;;;;;;5054567;28;20283;-83
2022/06/08 07:14:41;;;;;;;8.23;7.43;;;;;;;;;;5054549;28;20670;-83
2022/06/08 07:17:08;;;;;;;7.27;6.43;;;;;;;;;;5054378;28;20226;-83
2022/06/08 07:19:35;;;;;;;8.77;6.97;;;;;;;;;;5054552;28;20202;-83
2022/06/08 07:22:02;;;;;;;6.90;6.30;;;;;;;;;;5055159;28;20206;-84
2022/06/08 07:24:33;;;;;;;7.00;6.40;;;;;;;;;;5054771;28;20612;-83
2022/06/08 07:27:02;;;;;;;6.23;5.73;;;;;;;;;;5054249;28;20580;-83
2022/06/08 07:29:29;;;;;;;7.37;6.60;;;;;;;;;;5054612;28;20205;-83
2022/06/08 07:31:57;;;;;;;6.60;6.10;;;;;;;;;;5054431;28;20259;-83
2022/06/08 07:34:24;;;;;;;6.80;6.30;;;;;;;;;;5054126;28;20194;-83
2022/06/08 07:36:51;;;;;;;6.73;6.03;;;;;;;;;;5054353;28;20226;-83
2022/06/08 07:39:19;;;;;;;6.77;6.13;;;;;;;;;;5054092;28;20202;-83
2022/06/08 07:41:48;;;;;;;5.73;5.23;;;;;;;;;;5054411;28;20666;-84
2022/06/08 07:44:16;;;;;;;5.53;5.03;;;;;;;;;;5054275;28;20288;-84
2022/06/08 07:46:44;;;;;;;5.80;5.30;;;;;;;;;;5053863;28;20252;-84
2022/06/08 07:51:56;;;;;;;6.00;5.50;;;;;;;;;;5054273;28;20212;-84
2022/06/08 07:54:24;;;;;;;5.10;4.80;;;;;;;;;;5053763;28;20202;-84
2022/06/08 07:56:51;;;;;;;7.37;4.67;;;;;;;;;;5053894;28;20222;-84
2022/06/08 07:59:22;;;;;;;5.20;4.30;;;;;;;;;;5053060;28;20197;-84
2022/06/08 08:01:49;;;;;;;6.97;4.00;;;;;;;;;;5053859;28;20217;-83
2022/06/08 08:04:16;;;;;;;5.60;4.57;;;;;;;;;;5053930;28;20198;-84
2022/06/08 08:06:44;;;;;;;4.83;4.00;;;;;;;;;;5053731;28;20194;-83
2022/06/08 08:09:17;;;;;;;4.00;3.70;;;;;;;;;;5053855;28;20276;-84
2022/06/08 08:11:45;;;;;;;7.63;3.80;;;;;;;;;;5053626;28;20749;-84
2022/06/08 08:14:12;;;;;;;4.60;4.20;;;;;;;;;;5053777;28;20275;-84
2022/06/08 08:16:42;;;;;;;6.03;5.40;;;;;;;;;;5053442;28;20232;-83
2022/06/08 08:19:10;;;;;;;6.23;5.63;;;;;;;;;;5053164;28;20189;-84
2022/06/08 08:21:38;;;;;;;5.70;5.20;;;;;;;;;;5053423;28;20589;-83
2022/06/08 08:24:05;;;;;;;5.60;5.13;;;;;;;;;;5053262;28;20288;-83
2022/06/08 08:26:32;;;;;;;6.43;5.70;;;;;;;;;;5053653;28;20197;-84
2022/06/08 08:29:00;;;;;;;6.90;4.43;;;;;;;;;;5053199;28;20244;-83
2022/06/08 08:31:27;;;;;;;5.57;4.37;;;;;;;;;;5053234;28;20685;-84
2022/06/08 08:33:56;;;;;;;4.70;4.27;;;;;;;;;;5053067;28;20198;-83
2022/06/08 08:36:23;;;;;;;5.37;4.57;;;;;;;;;;5052839;28;20279;-83
2022/06/08 08:38:50;;;;;;;4.87;4.40;;;;;;;;;;5052987;28;20198;-84
2022/06/08 08:44:06;;;;;;;4.50;4.10;;;;;;;;;;5052967;28;20194;-84
2022/06/08 08:46:40;;;;;;;4.27;3.93;;;;;;;;;;5052799;28;20194;-84
2022/06/08 08:49:15;;;;;;;4.57;4.17;;;;;;;;;;5053267;28;20204;-84
2022/06/08 08:51:44;;;;;;;6.17;4.73;;;;;;;;;;5053171;28;20182;-83
2022/06/08 08:54:20;;;;;;;4.57;4.17;;;;;;;;;;5052950;28;20198;-84
2022/06/08 08:56:47;;;;;;;4.43;4.07;;;;;;;;;;5052673;28;20210;-83
2022/06/08 08:59:16;;;;;;;4.73;4.33;;;;;;;;;;5052709;28;20259;-83
2022/06/08 09:01:44;;;;;;;5.23;4.07;;;;;;;;;;5052725;28;20557;-83
2022/06/08 09:04:18;;;;;;;6.53;4.97;;;;;;;;;;5052521;28;20201;-83
2022/06/08 09:06:45;;;;;;;4.43;4.03;;;;;;;;;;5052851;28;20186;-83
2022/06/08 09:09:15;;;;;;;5.40;3.77;;;;;;;;;;5051887;28;20235;-83
2022/06/08 09:11:44;;;;;;;4.63;4.27;;;;;;;;;;5052403;28;20295;-83
2022/06/08 09:14:14;;;;;;;4.30;3.90;;;;;;;;;;5052399;28;20194;-83
2022/06/08 09:16:43;;;;;;;7.47;4.17;;;;;;;;;;5052630;28;20645;-83
2022/06/08 09:19:30;;;;;;;5.03;3.90;;;;;;;;;;5052247;28;20225;-83
2022/06/08 09:22:06;;;;;;;4.53;4.20;;;;;;;;;;5052414;28;20185;-83
2022/06/08 09:24:35;;;;;;;5.53;4.00;;;;;;;;;;5052065;28;20228;-83
2022/06/08 09:27:14;;;;;;;4.23;3.93;;;;;;;;;;5052068;28;20255;-83
2022/06/08 09:29:49;;;;;;;4.07;3.77;;;;;;;;;;5052370;28;20257;-83
2022/06/08 09:32:26;;;;;;;4.37;3.97;;;;;;;;;;5052517;28;20182;-83
2022/06/08 09:34:58;;;;;;;4.20;3.80;;;;;;;;;;5052099;28;20186;-83
2022/06/08 09:37:26;;;;;;;3.50;3.30;;;;;;;;;;5052013;28;20267;-83
2022/06/08 09:39:55;;;;;;;4.13;3.77;;;;;;;;;;5051884;28;20201;-83
2022/06/08 09:42:41;;;;;;;4.73;3.67;;;;;;;;;;5052029;28;20202;-83
2022/06/08 09:45:36;;;;;;;3.80;3.33;;;;;;;;;;5051638;28;20248;-83
2022/06/08 09:51:28;;;;;;;4.87;4.33;;;;;;;;;;5052308;28;20177;-83
2022/06/08 09:54:07;;;;;;;3.90;3.60;;;;;;;;;;5051596;28;20623;-83
2022/06/08 09:56:43;;;;;;;5.00;4.50;;;;;;;;;;5051741;28;20718;-83
2022/06/08 09:59:32;;;;;;;3.87;3.57;;;;;;;;;;5052055;28;20194;-83
2022/06/08 10:02:03;;;;;;;4.20;3.57;;;;;;;;;;5052134;28;20182;-83
2022/06/08 10:04:48;;;;;;;4.47;4.10;;;;;;;;;;5051434;28;20194;-83
2022/06/08 10:07:19;;;;;;;5.93;3.40;;;;;;;;;;5051812;28;20666;-83
2022/06/08 10:10:06;;;;;;;3.60;3.40;;;;;;;;;;5051640;28;20675;-83
2022/06/08 10:12:40;;;;;;;3.30;3.00;;;;;;;;;;5051461;28;20289;-83
2022/06/08 10:15:14;;;;;;;3.77;3.47;;;;;;;;;;5051762;28;20192;-83
2022/06/08 10:17:44;;;;;;;4.20;3.90;;;;;;;;;;5051875;28;20209;-84
2022/06/08 10:20:16;;;;;;;3.77;3.40;;;;;;;;;;5051541;28;20206;-83
2022/06/08 10:22:46;;;;;;;6.23;4.47;;;;;;;;;;5055057;28;20193;-83
2022/06/08 10:25:19;;;;;;;3.47;3.27;;;;;;;;;;5055847;28;20634;-83
2022/06/08 10:27:51;;;;;;;5.70;3.37;;;;;;;;;;5055529;28;20255;-83
2022/06/08 10:30:22;;;;;;;3.47;3.17;;;;;;;;;;5055311;28;20189;-83
2022/06/08 10:32:53;;;;;;;4.03;3.73;;;;;;;;;;5055479;28;20182;-84
2022/06/08 10:35:27;;;;;;;4.77;4.30;;;;;;;;;;5055699;28;20186;-84
2022/06/08 10:37:55;;;;;;;4.33;4.03;;;;;;;;;;5055132;28;20686;-83
2022/06/08 10:40:27;;;;;;;4.63;4.00;;;;;;;;;;5055336;28;20653;-84
2022/06/08 10:42:55;;;;;;;4.50;4.20;;;;;;;;;;5055337;28;20194;-83
2022/06/08 10:45:47;;;;;;;6.27;4.33;;;;;;;;;;5055220;28;20197;-83
2022/06/08 10:48:38;;;;;;;3.93;3.60;;;;;;;;;;5055167;28;20556;-83
2022/06/08 10:51:25;;;;;;;4.23;3.83;;;;;;;;;;5054930;28;20735;-83
2022/06/08 10:56:53;;;;;;;4.73;4.33;;;;;;;;;;5055475;28;20703;-84
2022/06/08 10:59:22;;;;;;;4.60;4.20;;;;;;;;;;5054948;28;20194;-84
2022/06/08 11:01:58;;;;;;;4.03;3.73;;;;;;;;;;5054936;28;20658;-83
2022/06/08 11:04:59;;;;;;;4.77;3.70;;;;;;;;;;5055145;28;20664;-84
2022/06/08 11:07:27;;;;;;;5.37;3.80;;;;;;;;;;4973841;28;20208;-83
2022/06/08 11:10:03;;;;;;;4.40;3.97;;;;;;;;;;5038674;28;20198;-84
2022/06/08 11:12:39;;;;;;;4.17;3.87;;;;;;;;;;5054754;28;20221;-84
2022/06/08 11:15:28;;;;;;;4.53;3.40;;;;;;;;;;5054516;28;20639;-85
2022/06/08 11:18:00;;;;;;;3.43;3.13;;;;;;;;;;5054643;28;20260;-83
2022/06/08 11:20:32;;;;;;;3.60;3.30;;;;;;;;;;5054565;28;20254;-84
2022/06/08 11:23:03;;;;;;;3.30;3.00;;;;;;;;;;5054503;28;20658;-83
2022/06/08 11:25:33;;;;;;;3.37;3.17;;;;;;;;;;5054515;28;20244;-84
2022/06/08 11:28:32;;;;;;;5.77;3.97;;;;;;;;;;5054706;28;20610;-84
2022/06/08 11:31:01;;;;;;;4.23;3.43;;;;;;;;;;5054436;28;20205;-83
2022/06/08 11:33:56;;;;;;;5.23;3.63;;;;;;;;;;5053197;28;20193;-84
2022/06/08 11:36:40;;;;;;;5.97;3.70;;;;;;;;;;5054565;28;20571;-84
2022/06/08 11:39:19;;;;;;;3.57;3.27;;;;;;;;;;5054237;28;20236;-84
2022/06/08 11:41:58;;;;;;;5.13;3.70;;;;;;;;;;5054384;28;20213;-84
2022/06/08 11:44:31;;;;;;;3.07;2.87;;;;;;;;;;5054319;28;20243;-83
2022/06/08 11:47:05;;;;;;;4.13;3.30;;;;;;;;;;5054228;28;20213;-83
2022/06/08 11:49:37;;;;;;;6.20;3.43;;;;;;;;;;5054230;28;20194;-84
2022/06/08 11:52:45;;;;;;;3.23;2.93;;;;;;;;;;5054119;28;20284;-83
2022/06/08 11:55:19;;;;;;;5.57;3.23;;;;;;;;;;5053861;28;20539;-84
2022/06/08 11:57:51;;;;;;;3.60;3.37;;;;;;;;;;5053983;28;20705;-84
2022/06/08 12:00:25;;;;;;;3.70;3.50;;;;;;;;;;5054074;28;20194;-83
2022/06/08 12:02:56;;;;;;;6.57;3.53;;;;;;;;;;5054273;28;20189;-83
2022/06/08 12:05:26;;;;;;;5.43;4.47;;;;;;;;;;5053987;28;20182;-86
2022/06/08 12:08:01;;;;;;;3.80;3.50;;;;;;;;;;5054189;28;20198;-86
2022/06/08 12:10:30;;;;;;;6.10;4.97;;;;;;;;;;5054262;28;20276;-88
2022/06/08 12:12:59;;;;;;;12.10;4.80;;;;;;;;;;5054033;28;20222;-86
2022/06/08 12:15:45;;;;;;;7.33;3.77;;;;;;;;;;5053859;28;20596;-87
2022/06/08 12:18:41;;;;;;;5.00;4.50;;;;;;;;;;5054170;28;20214;-86
2022/06/08 12:21:21;;;;;;;8.80;4.07;;;;;;;;;;5054048;28;20230;-87
2022/06/08 12:24:20;;;;;;;5.10;4.53;;;;;;;;;;5053951;28;20213;-86
2022/06/08 12:26:59;;;;;;;6.60;4.40;;;;;;;;;;5047253;28;20198;-86
2022/06/08 12:29:37;;;;;;;6.77;4.53;;;;;;;;;;5053611;28;20178;-85
2022/06/08 12:32:18;;;;;;;7.00;5.30;;;;;;;;;;5053195;28;20232;-85
2022/06/08 12:34:47;;;;;;;4.93;4.30;;;;;;;;;;5053473;28;20248;-85
2022/06/08 12:37:34;;;;;;;5.07;4.40;;;;;;;;;;5053130;28;20275;-86
2022/06/08 12:40:19;;;;;;;6.57;5.27;;;;;;;;;;5053387;28;20244;-85
2022/06/08 12:42:48;;;;;;;4.87;4.47;;;;;;;;;;5053006;28;20239;-85
2022/06/08 12:45:27;;;;;;;4.67;4.27;;;;;;;;;;5053336;28;20198;-85
2022/06/08 12:47:54;;;;;;;4.40;4.03;;;;;;;;;;5053175;28;20182;-84
2022/06/08 12:50:24;;;;;;;4.77;4.37;;;;;;;;;;5053002;28;20608;-84
2022/06/08 12:52:52;;;;;;;5.17;4.67;;;;;;;;;;5052823;28;20662;-84
2022/06/08 12:55:22;;;;;;;5.87;5.23;;;;;;;;;;5053025;28;20232;-84
2022/06/08 12:57:49;;;;;;;5.97;4.07;;;;;;;;;;5052682;28;20706;-83
2022/06/08 13:00:19;;;;;;;5.27;3.83;;;;;;;;;;5052320;28;20209;-84
2022/06/08 13:02:50;;;;;;;5.03;4.67;;;;;;;;;;5035160;28;20198;-83
2022/06/08 13:05:21;;;;;;;5.03;4.67;;;;;;;;;;5052490;28;20197;-83
2022/06/08 13:07:48;;;;;;;6.43;4.10;;;;;;;;;;5052868;28;20197;-83
2022/06/08 13:10:16;;;;;;;5.17;3.90;;;;;;;;;;5052560;28;20205;-83
2022/06/08 13:12:53;;;;;;;4.07;3.57;;;;;;;;;;5052478;28;20234;-84
2022/06/08 13:15:22;;;;;;;4.10;3.73;;;;;;;;;;5052882;28;20193;-84
2022/06/08 13:17:51;;;;;;;4.80;4.33;;;;;;;;;;5052482;28;20221;-84
2022/06/08 13:20:21;;;;;;;3.70;3.50;;;;;;;;;;5052553;28;20251;-85
2022/06/08 13:22:48;;;;;;;4.13;3.87;;;;;;;;;;5052337;28;20206;-84
2022/06/08 13:25:17;;;;;;;4.30;4.00;;;;;;;;;;5052124;28;20739;-84
2022/06/08 13:27:44;;;;;;;4.37;4.07;;;;;;;;;;5052566;28;20190;-84
2022/06/08 13:30:17;;;;;;;4.17;3.87;;;;;;;;;;5051972;28;20717;-84
2022/06/08 13:32:44;;;;;;;4.33;4.03;;;;;;;;;;5052501;28;20197;-84
2022/06/08 13:35:13;;;;;;;4.87;4.33;;;;;;;;;;5052284;28;20324;-84
2022/06/08 13:37:42;;;;;;;4.43;4.03;;;;;;;;;;5051901;28;20226;-84
2022/06/08 13:40:13;;;;;;;5.60;4.00;;;;;;;;;;5052205;28;20194;-83
2022/06/08 13:42:43;;;;;;;5.10;4.07;;;;;;;;;;5052291;28;20565;-83
2022/06/08 13:45:14;;;;;;;6.20;4.00;;;;;;;;;;5051840;28;20237;-83
2022/06/08 13:47:43;;;;;;;3.90;3.50;;;;;;;;;;5051897;28;20607;-83
2022/06/08 13:50:25;;;;;;;4.00;3.70;;;;;;;;;;5052000;28;20283;-83
2022/06/08 13:52:53;;;;;;;3.63;3.33;;;;;;;;;;5052178;28;20186;-83
2022/06/08 13:55:23;;;;;;;3.60;3.30;;;;;;;;;;5051588;28;20628;-83
2022/06/08 13:57:51;;;;;;;3.37;3.07;;;;;;;;;;5051807;28;20245;-83
2022/06/08 14:00:19;;;;;;;3.47;3.17;;;;;;;;;;5051830;28;20193;-83
2022/06/08 14:02:48;;;;;;;6.03;3.70;;;;;;;;;;5052126;28;20205;-83
2022/06/08 14:05:20;;;;;;;4.07;3.70;;;;;;;;;;5051571;28;20194;-83
2022/06/08 14:13:21;;;;;;;3.87;3.57;;;;;;;;;;5051222;28;20609;-83
2022/06/08 14:15:50;;;;;;;3.90;3.60;;;;;;;;;;5052832;28;20557;-83
2022/06/08 14:18:20;;;;;;;3.73;3.40;;;;;;;;;;5051303;28;20226;-84
2022/06/08 14:20:49;;;;;;;4.80;4.13;;;;;;;;;;5051603;28;20194;-84
2022/06/08 14:23:17;;;;;;;3.70;3.37;;;;;;;;;;5051539;28;20201;-83
2022/06/08 14:25:45;;;;;;;3.90;3.53;;;;;;;;;;5051960;28;20631;-85
2022/06/08 14:28:12;;;;;;;4.43;3.67;;;;;;;;;;5051543;28;20212;-84
2022/06/08 14:30:41;;;;;;;3.70;3.40;;;;;;;;;;5052172;28;20190;-84
2022/06/08 14:33:18;;;;;;;5.43;3.60;;;;;;;;;;5051397;28;20194;-84
2022/06/08 14:35:48;;;;;;;4.23;3.33;;;;;;;;;;5051844;28;20224;-84
2022/06/08 14:38:19;;;;;;;3.57;3.37;;;;;;;;;;5051595;28;20217;-84
2022/06/08 14:40:47;;;;;;;3.90;3.60;;;;;;;;;;5051779;28;20186;-84
2022/06/08 14:43:14;;;;;;;3.33;3.03;;;;;;;;;;5051027;28;20260;-83
2022/06/08 14:45:43;;;;;;;3.27;2.87;;;;;;;;;;5051672;28;20198;-84
2022/06/08 14:48:15;;;;;;;4.90;3.03;;;;;;;;;;5051223;28;20198;-83
2022/06/08 14:50:44;;;;;;;2.97;2.77;;;;;;;;;;5051443;28;20190;-83
2022/06/08 14:53:12;;;;;;;3.60;3.30;;;;;;;;;;5051503;28;20202;-84
2022/06/08 14:58:25;;;;;;;3.60;3.20;;;;;;;;;;5051465;28;20208;-84
2022/06/08 15:00:54;;;;;;;3.27;3.07;;;;;;;;;;5051251;28;20620;-84
2022/06/08 15:03:23;;;;;;;3.23;2.93;;;;;;;;;;5051398;28;20294;-84
2022/06/08 15:05:50;;;;;;;3.97;2.93;;;;;;;;;;5051511;28;20293;-84
2022/06/08 15:08:18;;;;;;;3.67;3.37;;;;;;;;;;5053812;28;20198;-84
2022/06/08 15:13:31;;;;;;;3.40;2.90;;;;;;;;;;5054509;28;20302;-84
2022/06/08 15:16:00;;;;;;;3.13;2.83;;;;;;;;;;5054686;28;20204;-84
2022/06/08 15:18:27;;;;;;;3.27;3.07;;;;;;;;;;5054465;28;20320;-84
2022/06/08 15:20:55;;;;;;;3.63;2.93;;;;;;;;;;5054585;28;20236;-84
2022/06/08 15:23:22;;;;;;;4.87;2.97;;;;;;;;;;5054679;28;20201;-84
2022/06/08 15:25:52;;;;;;;3.60;3.13;;;;;;;;;;5054487;28;20205;-84
2022/06/08 15:28:24;;;;;;;3.30;3.00;;;;;;;;;;5054465;28;20204;-84
2022/06/08 15:30:51;;;;;;;4.50;3.13;;;;;;;;;;5054771;28;20603;-84